Time;durP1;ratioP1;P1;durP2;ratioP2;P2;SDS_P1;SDS_P2;PMS_P1;PMS_P2;Temp;Humidity;BMP_temperature;BMP_pressure;BME280_temperature;BME280_humidity;BME280_pressure;Samples;Min_cycle;Max_cycle;Signal;HPM_P1;HPM_P2
2021/12/22 00:01:08;;;;;;;;;48.25;43.50;;;;;;;;5098711;27;45359;-49
2021/12/22 00:03:34;;;;;;;;;45.75;41.25;;;;;;;;5100074;27;45481;-51
2021/12/22 00:05:59;;;;;;;;;54.50;47.75;;;;;;;;5099782;27;46132;-51
2021/12/22 00:08:26;;;;;;;;;53.75;46.00;;;;;;;;5099855;27;45162;-52
2021/12/22 00:10:51;;;;;;;;;52.25;46.50;;;;;;;;5099013;27;45455;-52
2021/12/22 00:13:16;;;;;;;;;54.50;43.75;;;;;;;;5099210;27;45329;-55
2021/12/22 00:15:41;;;;;;;;;50.25;44.25;;;;;;;;5098935;27;46159;-49
2021/12/22 00:18:07;;;;;;;;;56.75;46.00;;;;;;;;5098467;27;45475;-51
2021/12/22 00:20:32;;;;;;;;;52.00;43.50;;;;;;;;5099329;27;45605;-51
2021/12/22 00:22:58;;;;;;;;;59.50;48.25;;;;;;;;5099054;27;45500;-50
2021/12/22 00:25:25;;;;;;;;;51.50;44.75;;;;;;;;5099123;27;46524;-50
2021/12/22 00:27:51;;;;;;;;;51.00;42.50;;;;;;;;5098133;27;45503;-50
2021/12/22 00:30:17;;;;;;;;;52.00;44.50;;;;;;;;5098785;27;45360;-51
2021/12/22 00:32:49;;;;;;;;;53.75;45.50;;;;;;;;5099529;27;45447;-50
2021/12/22 00:35:15;;;;;;;;;57.75;47.75;;;;;;;;5098671;27;46319;-49
2021/12/22 00:37:40;;;;;;;;;52.25;44.50;;;;;;;;5097562;27;45417;-49
2021/12/22 00:40:06;;;;;;;;;60.75;48.25;;;;;;;;5098892;27;45325;-49
2021/12/22 00:42:31;;;;;;;;;49.50;44.25;;;;;;;;5099186;27;45513;-51
2021/12/22 00:44:56;;;;;;;;;53.25;43.25;;;;;;;;5098145;27;46251;-51
2021/12/22 00:47:24;;;;;;;;;53.50;44.25;;;;;;;;5099020;27;45304;-51
2021/12/22 00:49:49;;;;;;;;;47.25;40.25;;;;;;;;5098259;27;45263;-51
2021/12/22 00:52:15;;;;;;;;;50.00;46.00;;;;;;;;5099218;27;45502;-50
2021/12/22 00:54:40;;;;;;;;;54.00;46.00;;;;;;;;5097879;27;45246;-52
2021/12/22 00:57:06;;;;;;;;;51.50;44.50;;;;;;;;5098216;27;45725;-49
2021/12/22 00:59:33;;;;;;;;;51.00;43.50;;;;;;;;5097982;27;45465;-50
2021/12/22 01:01:58;;;;;;;;;45.75;41.25;;;;;;;;5098120;27;45429;-51
2021/12/22 01:04:23;;;;;;;;;44.25;40.25;;;;;;;;5098162;27;46149;-50
2021/12/22 01:06:48;;;;;;;;;46.50;42.25;;;;;;;;5097852;27;45426;-49
2021/12/22 01:09:13;;;;;;;;;45.00;41.75;;;;;;;;5098500;27;45232;-50
2021/12/22 01:11:39;;;;;;;;;44.50;40.25;;;;;;;;5098521;27;45620;-51
2021/12/22 01:14:04;;;;;;;;;47.00;41.25;;;;;;;;5098741;27;45274;-48
2021/12/22 01:16:29;;;;;;;;;44.50;41.25;;;;;;;;5097449;27;45849;-50
2021/12/22 01:18:57;;;;;;;;;47.25;38.00;;;;;;;;5097740;27;45380;-50
2021/12/22 01:21:30;;;;;;;;;43.50;41.50;;;;;;;;5098855;27;45351;-48
2021/12/22 01:24:13;;;;;;;;;54.00;44.00;;;;;;;;5095217;27;46244;-51
2021/12/22 01:26:45;;;;;;;;;42.50;41.75;;;;;;;;5096705;27;46413;-50
2021/12/22 01:29:11;;;;;;;;;46.50;43.00;;;;;;;;5096995;27;45606;-49
2021/12/22 01:31:39;;;;;;;;;44.50;41.75;;;;;;;;5098094;27;45567;-49
2021/12/22 01:34:04;;;;;;;;;41.75;37.75;;;;;;;;5097912;27;45921;-51
2021/12/22 01:36:29;;;;;;;;;49.00;42.25;;;;;;;;5097959;27;45340;-51
2021/12/22 01:38:54;;;;;;;;;47.75;42.50;;;;;;;;5097056;27;45350;-52
2021/12/22 01:41:20;;;;;;;;;49.00;41.00;;;;;;;;5098091;27;45289;-49
2021/12/22 01:43:46;;;;;;;;;52.50;45.00;;;;;;;;5095930;27;45459;-52
2021/12/22 01:46:33;;;;;;;;;43.00;40.75;;;;;;;;5096215;27;45521;-49
2021/12/22 01:49:14;;;;;;;;;54.00;45.25;;;;;;;;5097178;27;45244;-52
2021/12/22 01:51:51;;;;;;;;;47.25;40.25;;;;;;;;5097038;27;45407;-49
2021/12/22 01:54:19;;;;;;;;;48.00;42.25;;;;;;;;5098155;27;46071;-49
2021/12/22 01:56:45;;;;;;;;;60.25;48.00;;;;;;;;5098042;27;45291;-48
2021/12/22 01:59:11;;;;;;;;;46.25;41.50;;;;;;;;5098075;27;45445;-52
2021/12/22 02:01:36;;;;;;;;;45.75;42.00;;;;;;;;5095331;27;45329;-52
2021/12/22 02:04:03;;;;;;;;;48.25;43.50;;;;;;;;5097175;27;46386;-54
2021/12/22 02:06:29;;;;;;;;;58.50;48.25;;;;;;;;5097842;27;45376;-51
2021/12/22 02:08:54;;;;;;;;;54.50;45.25;;;;;;;;5098045;27;45316;-50
2021/12/22 02:11:20;;;;;;;;;54.25;44.00;;;;;;;;5097347;27;45593;-47
2021/12/22 02:13:50;;;;;;;;;52.50;42.00;;;;;;;;5096572;27;45753;-47
2021/12/22 02:16:16;;;;;;;;;55.75;45.75;;;;;;;;5096889;27;45182;-51
2021/12/22 02:18:44;;;;;;;;;54.00;45.75;;;;;;;;5097332;27;45290;-49
2021/12/22 02:21:09;;;;;;;;;46.00;42.00;;;;;;;;5090558;27;45432;-50
2021/12/22 02:23:35;;;;;;;;;48.25;44.25;;;;;;;;5096609;27;46508;-48
2021/12/22 02:26:24;;;;;;;;;46.00;41.75;;;;;;;;5097865;27;45329;-52
2021/12/22 02:28:57;;;;;;;;;49.25;37.75;;;;;;;;5097697;27;45293;-52
2021/12/22 02:31:23;;;;;;;;;48.25;40.25;;;;;;;;5096880;27;45161;-49
2021/12/22 02:33:50;;;;;;;;;53.25;43.75;;;;;;;;5097218;27;45286;-49
2021/12/22 02:38:45;;;;;;;;;55.75;46.25;;;;;;;;5096731;27;45438;-50
2021/12/22 02:41:13;;;;;;;;;51.00;42.00;;;;;;;;5097218;27;45372;-50
2021/12/22 02:43:47;;;;;;;;;47.00;41.50;;;;;;;;5096824;27;46538;-51
2021/12/22 02:46:13;;;;;;;;;58.25;42.00;;;;;;;;5096103;27;45466;-50
2021/12/22 02:48:39;;;;;;;;;44.50;40.75;;;;;;;;5097570;27;45286;-50
2021/12/22 02:51:04;;;;;;;;;43.25;41.75;;;;;;;;5096932;27;45532;-50
2021/12/22 02:53:39;;;;;;;;;53.00;46.25;;;;;;;;5095784;27;45747;-49
2021/12/22 02:56:33;;;;;;;;;57.75;46.00;;;;;;;;5096830;27;45254;-48
2021/12/22 03:04:10;;;;;;;;;55.50;45.25;;;;;;;;5096731;27;45344;-52
2021/12/22 03:06:44;;;;;;;;;46.75;42.00;;;;;;;;5097341;27;45641;-50
2021/12/22 03:09:18;;;;;;;;;50.75;44.75;;;;;;;;5096798;27;45315;-51
2021/12/22 03:11:44;;;;;;;;;58.75;45.50;;;;;;;;5096306;27;45428;-53
2021/12/22 03:14:09;;;;;;;;;46.00;42.00;;;;;;;;5096678;27;45447;-48
2021/12/22 03:16:35;;;;;;;;;50.25;45.25;;;;;;;;5096691;27;45392;-50
2021/12/22 03:19:00;;;;;;;;;45.00;42.75;;;;;;;;5095525;27;45505;-49
2021/12/22 03:21:25;;;;;;;;;53.50;44.75;;;;;;;;5097168;27;45344;-49
2021/12/22 03:23:52;;;;;;;;;54.00;45.75;;;;;;;;5095731;27;46065;-53
2021/12/22 03:26:18;;;;;;;;;63.75;49.50;;;;;;;;5096833;27;45302;-50
2021/12/22 03:28:47;;;;;;;;;54.00;47.75;;;;;;;;5095178;27;45498;-51
2021/12/22 03:31:13;;;;;;;;;55.75;44.75;;;;;;;;5096065;27;45218;-50
2021/12/22 03:33:38;;;;;;;;;53.25;45.50;;;;;;;;5096161;27;45991;-52
2021/12/22 03:36:04;;;;;;;;;48.00;42.00;;;;;;;;5095852;27;45232;-50
2021/12/22 03:38:31;;;;;;;;;52.00;45.00;;;;;;;;5095516;27;45362;-50
2021/12/22 03:40:56;;;;;;;;;53.75;45.50;;;;;;;;5095789;27;45525;-51
2021/12/22 03:43:22;;;;;;;;;51.25;41.75;;;;;;;;5096595;27;46297;-48
2021/12/22 03:45:47;;;;;;;;;53.00;43.75;;;;;;;;5096184;27;45404;-52
2021/12/22 03:48:16;;;;;;;;;57.50;45.25;;;;;;;;5096100;27;45283;-52
2021/12/22 03:50:41;;;;;;;;;59.75;46.75;;;;;;;;5096575;27;45544;-51
2021/12/22 03:53:06;;;;;;;;;48.75;42.00;;;;;;;;5095909;27;45372;-52
2021/12/22 03:55:31;;;;;;;;;47.25;43.00;;;;;;;;5095987;27;45635;-52
2021/12/22 03:57:56;;;;;;;;;51.50;42.75;;;;;;;;5096519;27;45445;-50
2021/12/22 04:00:22;;;;;;;;;52.50;45.25;;;;;;;;5096263;27;45419;-51
2021/12/22 04:02:47;;;;;;;;;48.50;43.25;;;;;;;;5095415;27;46236;-48
2021/12/22 04:05:12;;;;;;;;;46.25;41.75;;;;;;;;5096370;27;45188;-49
2021/12/22 04:07:38;;;;;;;;;46.50;41.25;;;;;;;;5096397;27;45214;-48
2021/12/22 04:10:19;;;;;;;;;48.25;43.75;;;;;;;;5096153;27;45345;-48
2021/12/22 04:12:44;;;;;;;;;54.75;45.75;;;;;;;;5095898;27;45515;-49
2021/12/22 04:15:09;;;;;;;;;50.75;40.75;;;;;;;;5094918;27;45406;-51
2021/12/22 04:17:34;;;;;;;;;54.00;42.50;;;;;;;;5094885;27;45392;-50
2021/12/22 04:19:59;;;;;;;;;44.50;40.00;;;;;;;;5096284;27;45521;-48
2021/12/22 04:22:25;;;;;;;;;52.00;42.75;;;;;;;;5096011;27;46211;-48
2021/12/22 04:24:50;;;;;;;;;46.00;42.00;;;;;;;;5095831;27;45515;-49
2021/12/22 04:27:15;;;;;;;;;47.50;45.25;;;;;;;;5099935;27;45458;-50
2021/12/22 04:29:40;;;;;;;;;59.75;44.75;;;;;;;;5099478;27;45368;-49
2021/12/22 04:32:06;;;;;;;;;62.25;47.00;;;;;;;;5098929;27;45646;-51
2021/12/22 04:34:31;;;;;;;;;48.25;44.25;;;;;;;;5099778;27;45390;-49
2021/12/22 04:36:56;;;;;;;;;53.75;44.00;;;;;;;;5099101;27;45448;-48
2021/12/22 04:39:21;;;;;;;;;53.75;43.50;;;;;;;;5099367;27;45527;-54
2021/12/22 04:41:48;;;;;;;;;57.00;45.25;;;;;;;;5098968;27;46296;-50
2021/12/22 04:44:13;;;;;;;;;59.25;47.75;;;;;;;;5099425;27;45363;-47
2021/12/22 04:46:39;;;;;;;;;53.75;43.75;;;;;;;;5098425;27;45223;-49
2021/12/22 04:49:04;;;;;;;;;48.50;43.00;;;;;;;;5099176;27;45502;-47
2021/12/22 04:51:31;;;;;;;;;49.50;44.25;;;;;;;;5098676;27;46411;-48
2021/12/22 04:56:28;;;;;;;;;59.00;43.00;;;;;;;;5099394;27;45318;-47
2021/12/22 04:58:53;;;;;;;;;46.25;43.00;;;;;;;;5098412;27;45593;-50
2021/12/22 05:01:19;;;;;;;;;41.50;40.50;;;;;;;;5097934;27;45583;-46
2021/12/22 05:03:44;;;;;;;;;48.25;42.50;;;;;;;;5098919;27;45358;-48
2021/12/22 05:06:09;;;;;;;;;47.50;42.50;;;;;;;;5099301;27;45267;-50
2021/12/22 05:08:34;;;;;;;;;54.25;45.00;;;;;;;;5097705;27;45302;-49
2021/12/22 05:11:00;;;;;;;;;48.50;43.50;;;;;;;;5098625;27;45894;-51
2021/12/22 05:13:25;;;;;;;;;49.25;42.00;;;;;;;;5098830;27;45385;-49
2021/12/22 05:15:51;;;;;;;;;48.50;42.25;;;;;;;;5098664;27;45368;-50
2021/12/22 05:20:45;;;;;;;;;47.50;41.75;;;;;;;;5097829;27;46058;-48
2021/12/22 05:23:10;;;;;;;;;53.00;43.75;;;;;;;;5098655;27;45293;-50
2021/12/22 05:25:35;;;;;;;;;43.75;40.25;;;;;;;;5098481;27;45477;-48
2021/12/22 05:28:00;;;;;;;;;49.75;39.00;;;;;;;;5098564;27;45488;-49
2021/12/22 05:30:26;;;;;;;;;40.75;39.75;;;;;;;;5097807;27;45896;-47
2021/12/22 05:32:54;;;;;;;;;53.25;44.00;;;;;;;;5098286;27;45380;-51
2021/12/22 05:35:19;;;;;;;;;47.00;41.50;;;;;;;;5098130;27;45780;-48
2021/12/22 05:37:44;;;;;;;;;42.50;41.00;;;;;;;;5098633;27;45404;-49
2021/12/22 05:40:10;;;;;;;;;43.50;40.25;;;;;;;;5098469;27;46047;-48
2021/12/22 05:42:35;;;;;;;;;49.25;43.00;;;;;;;;5097891;27;45278;-50
2021/12/22 05:45:00;;;;;;;;;53.50;41.50;;;;;;;;5098626;27;45484;-49
2021/12/22 05:47:25;;;;;;;;;53.75;45.75;;;;;;;;5098106;27;45127;-53
2021/12/22 05:49:51;;;;;;;;;50.25;42.50;;;;;;;;5097412;27;45418;-53
2021/12/22 05:52:16;;;;;;;;;52.25;42.25;;;;;;;;5098160;27;45406;-50
2021/12/22 05:54:41;;;;;;;;;53.50;44.75;;;;;;;;5096416;27;45414;-52
2021/12/22 05:57:06;;;;;;;;;48.25;44.00;;;;;;;;5097545;27;45326;-51
2021/12/22 05:59:32;;;;;;;;;47.50;35.25;;;;;;;;5098043;27;45318;-51
2021/12/22 06:01:57;;;;;;;;;45.50;42.50;;;;;;;;5096779;27;45428;-51
2021/12/22 06:04:22;;;;;;;;;47.25;42.25;;;;;;;;5097212;27;45407;-50
2021/12/22 06:06:48;;;;;;;;;45.50;42.25;;;;;;;;5098039;27;45486;-52
2021/12/22 06:09:13;;;;;;;;;52.25;46.25;;;;;;;;5096762;27;47927;-50
2021/12/22 06:11:38;;;;;;;;;45.00;42.00;;;;;;;;5097199;27;45499;-53
2021/12/22 06:14:03;;;;;;;;;49.25;41.75;;;;;;;;5096815;27;45374;-47
2021/12/22 06:16:30;;;;;;;;;47.75;41.50;;;;;;;;5095996;27;45543;-50
2021/12/22 06:19:02;;;;;;;;;60.00;45.50;;;;;;;;5096361;27;45917;-51
2021/12/22 06:21:27;;;;;;;;;48.25;42.50;;;;;;;;5097266;27;45325;-48
2021/12/22 06:23:52;;;;;;;;;57.75;46.00;;;;;;;;5097855;27;45408;-50
2021/12/22 06:26:17;;;;;;;;;63.50;49.25;;;;;;;;5097343;27;45289;-52
2021/12/22 06:28:43;;;;;;;;;63.25;46.75;;;;;;;;5097615;27;46273;-52
2021/12/22 06:31:08;;;;;;;;;57.25;46.25;;;;;;;;5097123;27;45567;-50
2021/12/22 06:33:33;;;;;;;;;46.50;43.25;;;;;;;;5097794;27;45277;-50
2021/12/22 06:35:59;;;;;;;;;57.50;45.50;;;;;;;;5097712;27;45415;-48
2021/12/22 06:38:24;;;;;;;;;62.50;45.75;;;;;;;;5097046;27;45420;-49
2021/12/22 06:40:49;;;;;;;;;54.25;48.00;;;;;;;;5097084;27;45248;-50
2021/12/22 06:43:15;;;;;;;;;60.75;48.50;;;;;;;;5096922;27;45255;-50
2021/12/22 06:45:40;;;;;;;;;55.25;48.25;;;;;;;;5097212;27;45476;-48
2021/12/22 06:48:06;;;;;;;;;49.50;43.75;;;;;;;;5095863;27;47142;-49
2021/12/22 06:50:31;;;;;;;;;50.25;44.75;;;;;;;;5097126;27;45408;-47
2021/12/22 06:52:56;;;;;;;;;50.50;45.25;;;;;;;;5097490;27;45286;-49
2021/12/22 06:55:21;;;;;;;;;44.50;41.75;;;;;;;;5096518;27;45596;-48
2021/12/22 06:57:47;;;;;;;;;54.50;44.50;;;;;;;;5096581;27;45325;-48
2021/12/22 07:00:12;;;;;;;;;42.50;38.50;;;;;;;;5096214;27;45634;-50
2021/12/22 07:02:39;;;;;;;;;49.25;42.25;;;;;;;;5096242;27;45424;-49
2021/12/22 07:05:08;;;;;;;;;50.75;40.75;;;;;;;;5096833;27;45515;-48
2021/12/22 07:07:33;;;;;;;;;51.25;44.00;;;;;;;;5096821;27;46465;-55
2021/12/22 07:09:59;;;;;;;;;51.50;42.50;;;;;;;;5095014;27;45384;-48
2021/12/22 07:12:24;;;;;;;;;43.75;38.00;;;;;;;;5096484;27;45540;-49
2021/12/22 07:14:49;;;;;;;;;60.25;45.50;;;;;;;;5097067;27;45377;-48
2021/12/22 07:17:15;;;;;;;;;48.00;43.50;;;;;;;;5095976;27;46514;-47
2021/12/22 07:19:40;;;;;;;;;52.50;42.50;;;;;;;;5096246;27;45413;-51
2021/12/22 07:22:05;;;;;;;;;55.75;43.75;;;;;;;;5096114;27;45392;-51
2021/12/22 07:24:31;;;;;;;;;49.00;42.25;;;;;;;;5096629;27;45249;-50
2021/12/22 07:26:56;;;;;;;;;50.25;44.75;;;;;;;;5095771;27;46294;-47
2021/12/22 07:29:21;;;;;;;;;49.00;42.00;;;;;;;;5096504;27;45459;-48
2021/12/22 07:31:46;;;;;;;;;45.00;43.50;;;;;;;;5095892;27;45305;-49
2021/12/22 07:34:12;;;;;;;;;41.75;35.50;;;;;;;;5096427;27;45306;-49
2021/12/22 07:36:42;;;;;;;;;46.75;39.75;;;;;;;;5096517;27;46110;-48
2021/12/22 07:39:07;;;;;;;;;42.00;37.50;;;;;;;;5096603;27;45430;-52
2021/12/22 07:41:32;;;;;;;;;50.75;43.75;;;;;;;;5096282;27;45432;-53
2021/12/22 07:43:57;;;;;;;;;47.25;41.25;;;;;;;;5096064;27;45373;-49
2021/12/22 07:46:23;;;;;;;;;41.00;39.75;;;;;;;;5096042;27;46052;-48
2021/12/22 07:48:48;;;;;;;;;52.75;45.00;;;;;;;;5096393;27;45373;-50
2021/12/22 07:51:13;;;;;;;;;56.00;45.25;;;;;;;;5096198;27;45378;-49
2021/12/22 07:53:39;;;;;;;;;50.00;42.00;;;;;;;;5094288;27;45409;-49
2021/12/22 07:56:04;;;;;;;;;48.75;42.75;;;;;;;;5096002;27;45505;-50
2021/12/22 07:58:29;;;;;;;;;47.25;43.50;;;;;;;;5095965;27;45479;-52
2021/12/22 08:00:55;;;;;;;;;52.25;45.50;;;;;;;;5098040;27;45427;-49
2021/12/22 08:03:21;;;;;;;;;48.00;42.25;;;;;;;;5099533;27;45504;-47
2021/12/22 08:05:47;;;;;;;;;37.75;34.00;;;;;;;;5099156;27;46037;-52
2021/12/22 08:08:12;;;;;;;;;63.25;48.50;;;;;;;;5099050;27;45444;-50
2021/12/22 08:10:37;;;;;;;;;49.00;42.50;;;;;;;;5098899;27;45970;-49
2021/12/22 08:13:03;;;;;;;;;51.50;44.00;;;;;;;;5099219;27;45312;-50
2021/12/22 08:15:28;;;;;;;;;57.75;48.50;;;;;;;;5096757;27;45443;-52
2021/12/22 08:17:54;;;;;;;;;56.00;46.00;;;;;;;;5099341;27;45416;-50
2021/12/22 08:20:20;;;;;;;;;55.50;48.00;;;;;;;;5099766;27;45308;-49
2021/12/22 08:22:45;;;;;;;;;54.25;38.25;;;;;;;;5099321;27;45476;-50
2021/12/22 08:25:11;;;;;;;;;47.00;39.75;;;;;;;;5098453;27;46258;-53
2021/12/22 08:27:36;;;;;;;;;53.75;45.25;;;;;;;;5098452;27;45262;-48
2021/12/22 08:30:02;;;;;;;;;48.00;44.50;;;;;;;;5099360;27;45478;-50
2021/12/22 08:32:27;;;;;;;;;50.00;44.75;;;;;;;;5098716;27;45563;-48
2021/12/22 08:34:55;;;;;;;;;48.50;43.50;;;;;;;;5099302;27;46172;-53
2021/12/22 08:40:06;;;;;;;;;55.50;47.50;;;;;;;;5078925;28;45315;-50
2021/12/22 08:42:31;;;;;;;;;43.75;42.50;;;;;;;;5078798;27;45467;-51
2021/12/22 08:44:56;;;;;;;;;62.00;48.25;;;;;;;;5078637;28;45292;-48
2021/12/22 08:47:22;;;;;;;;;50.00;45.25;;;;;;;;5097314;27;45409;-49
2021/12/22 08:49:47;;;;;;;;;54.25;43.25;;;;;;;;5098786;27;45874;-50
2021/12/22 08:52:12;;;;;;;;;54.25;44.25;;;;;;;;5099020;27;45328;-50
2021/12/22 08:54:38;;;;;;;;;58.75;44.50;;;;;;;;5098858;27;46311;-48
2021/12/22 08:57:03;;;;;;;;;51.00;45.00;;;;;;;;5098501;27;45337;-48
2021/12/22 08:59:29;;;;;;;;;58.00;47.50;;;;;;;;5099000;27;45365;-49
2021/12/22 09:01:54;;;;;;;;;59.00;48.00;;;;;;;;5098111;27;45439;-52
2021/12/22 09:04:20;;;;;;;;;56.50;44.25;;;;;;;;5098767;27;45344;-51
2021/12/22 09:06:45;;;;;;;;;51.00;45.25;;;;;;;;5097332;27;45414;-51
2021/12/22 09:09:11;;;;;;;;;53.75;49.00;;;;;;;;5098899;27;45373;-52
2021/12/22 09:11:37;;;;;;;;;53.00;44.75;;;;;;;;5097480;27;45575;-48
2021/12/22 09:14:04;;;;;;;;;46.50;41.50;;;;;;;;5098133;27;46255;-50
2021/12/22 09:16:30;;;;;;;;;59.00;47.00;;;;;;;;5098227;27;45242;-50
2021/12/22 09:18:56;;;;;;;;;52.00;45.25;;;;;;;;5098634;27;45271;-47
2021/12/22 09:21:21;;;;;;;;;57.50;43.25;;;;;;;;5098118;27;45291;-49
2021/12/22 09:24:05;;;;;;;;;56.75;45.00;;;;;;;;5097826;27;46101;-51
2021/12/22 09:26:31;;;;;;;;;64.25;46.75;;;;;;;;5098229;27;45276;-50
2021/12/22 09:28:57;;;;;;;;;54.50;44.25;;;;;;;;5098488;27;45313;-49
2021/12/22 09:31:23;;;;;;;;;55.75;46.75;;;;;;;;5098056;27;45273;-54
2021/12/22 09:33:48;;;;;;;;;50.00;44.25;;;;;;;;5097802;27;45276;-48
2021/12/22 09:36:14;;;;;;;;;52.75;45.75;;;;;;;;5098369;27;45238;-50
2021/12/22 09:38:39;;;;;;;;;53.00;44.75;;;;;;;;5097184;27;45459;-51
2021/12/22 09:41:05;;;;;;;;;61.25;50.75;;;;;;;;5098365;27;45550;-49
2021/12/22 09:43:30;;;;;;;;;59.00;46.25;;;;;;;;5097067;27;45301;-49
2021/12/22 09:46:01;;;;;;;;;48.50;45.50;;;;;;;;5097263;27;45481;-53
2021/12/22 09:53:35;;;;;;;;;53.50;46.50;;;;;;;;5097233;27;46146;-50
2021/12/22 09:56:01;;;;;;;;;56.50;48.00;;;;;;;;5095512;27;45369;-51
2021/12/22 09:58:26;;;;;;;;;47.75;42.75;;;;;;;;5098138;27;45903;-47
2021/12/22 10:00:52;;;;;;;;;61.75;48.50;;;;;;;;5097356;27;45523;-50
2021/12/22 10:03:17;;;;;;;;;56.75;49.50;;;;;;;;5097676;27;46291;-54
2021/12/22 10:05:44;;;;;;;;;47.25;41.00;;;;;;;;5097464;27;45328;-49
2021/12/22 10:08:09;;;;;;;;;61.50;49.50;;;;;;;;5097322;27;45356;-53
2021/12/22 10:10:36;;;;;;;;;52.25;38.00;;;;;;;;5096893;27;45364;-48
2021/12/22 10:13:06;;;;;;;;;61.75;49.25;;;;;;;;5096967;27;45961;-51
2021/12/22 10:15:32;;;;;;;;;60.25;47.75;;;;;;;;5097294;27;45882;-51
2021/12/22 10:18:05;;;;;;;;;57.00;48.75;;;;;;;;5096900;27;45657;-48
2021/12/22 10:20:32;;;;;;;;;66.25;47.50;;;;;;;;5077244;27;45340;-50
2021/12/22 10:22:57;;;;;;;;;65.50;49.50;;;;;;;;5075892;28;46398;-50
2021/12/22 10:25:23;;;;;;;;;55.00;47.50;;;;;;;;5077197;28;45286;-49
2021/12/22 10:27:58;;;;;;;;;63.75;51.25;;;;;;;;5092107;27;45159;-50
2021/12/22 10:30:23;;;;;;;;;66.00;53.25;;;;;;;;5097216;27;45623;-50
2021/12/22 10:32:48;;;;;;;;;59.00;49.00;;;;;;;;5097350;27;45976;-50
2021/12/22 10:35:13;;;;;;;;;55.50;47.00;;;;;;;;5096918;27;45492;-53
2021/12/22 10:37:43;;;;;;;;;60.00;46.00;;;;;;;;5097136;27;45380;-49
2021/12/22 10:40:28;;;;;;;;;49.50;45.75;;;;;;;;5095884;27;45486;-50
2021/12/22 10:42:54;;;;;;;;;63.25;50.25;;;;;;;;5097275;27;46031;-47
2021/12/22 10:45:20;;;;;;;;;55.50;49.00;;;;;;;;5096618;27;45399;-51
2021/12/22 10:49:14;;;;;;;;;62.25;49.75;;;;;;;;5097338;27;45423;-48
2021/12/22 10:50:32;;;;;;;;;57.50;46.00;;;;;;;;5096334;27;45221;-49
2021/12/22 10:52:58;;;;;;;;;64.00;47.50;;;;;;;;5095763;27;46272;-50
2021/12/22 10:55:23;;;;;;;;;53.75;47.00;;;;;;;;5095966;27;45248;-49
2021/12/22 10:57:48;;;;;;;;;62.25;50.50;;;;;;;;5097257;27;45296;-52
2021/12/22 11:00:23;;;;;;;;;59.50;48.00;;;;;;;;5096020;27;45548;-50
2021/12/22 11:03:09;;;;;;;;;60.50;49.25;;;;;;;;5095782;27;45410;-48
2021/12/22 11:05:45;;;;;;;;;63.50;50.25;;;;;;;;5096091;27;45191;-49
2021/12/22 11:08:23;;;;;;;;;60.00;47.75;;;;;;;;5090760;27;45250;-51
2021/12/22 11:10:49;;;;;;;;;63.25;49.00;;;;;;;;5095840;27;45616;-49
2021/12/22 11:13:22;;;;;;;;;55.00;46.00;;;;;;;;5092522;27;46279;-52
2021/12/22 11:15:48;;;;;;;;;55.50;48.75;;;;;;;;5096645;27;45559;-53
2021/12/22 11:18:26;;;;;;;;;52.50;45.75;;;;;;;;5096852;27;45440;-52
2021/12/22 11:21:10;;;;;;;;;65.00;50.00;;;;;;;;5096256;27;45293;-48
2021/12/22 11:23:35;;;;;;;;;63.00;48.75;;;;;;;;5094543;27;47398;-53
2021/12/22 11:26:01;;;;;;;;;52.25;46.00;;;;;;;;5096711;27;45379;-51
2021/12/22 11:28:26;;;;;;;;;58.50;44.00;;;;;;;;5096753;27;45284;-50
2021/12/22 11:30:52;;;;;;;;;47.50;42.50;;;;;;;;5096398;27;45424;-50
2021/12/22 11:33:17;;;;;;;;;52.25;46.75;;;;;;;;5096279;27;45252;-51
2021/12/22 11:35:42;;;;;;;;;53.50;46.00;;;;;;;;5099668;27;45239;-51
2021/12/22 11:38:07;;;;;;;;;30.00;28.50;;;;;;;;5100153;27;45230;-52
2021/12/22 11:40:33;;;;;;;;;48.50;42.75;;;;;;;;5100146;27;45218;-52
2021/12/22 11:42:58;;;;;;;;;64.00;50.25;;;;;;;;5098965;27;45413;-49
2021/12/22 11:45:25;;;;;;;;;46.75;43.25;;;;;;;;5098530;27;45437;-49
2021/12/22 11:47:52;;;;;;;;;54.25;45.25;;;;;;;;5098719;27;45438;-54
2021/12/22 11:50:22;;;;;;;;;53.50;44.00;;;;;;;;5100240;27;45402;-51
2021/12/22 11:52:53;;;;;;;;;48.25;43.75;;;;;;;;5099779;27;46094;-50
2021/12/22 11:55:23;;;;;;;;;53.25;46.00;;;;;;;;5099808;27;45431;-50
2021/12/22 11:57:49;;;;;;;;;48.00;45.75;;;;;;;;5099906;27;45359;-52
2021/12/22 12:00:26;;;;;;;;;57.50;45.50;;;;;;;;5099833;27;45314;-52
2021/12/22 12:02:53;;;;;;;;;57.50;47.00;;;;;;;;5099766;27;45324;-50
2021/12/22 12:05:28;;;;;;;;;54.25;44.75;;;;;;;;5099884;27;45278;-50
2021/12/22 12:07:55;;;;;;;;;53.75;46.75;;;;;;;;5099294;27;45377;-52
2021/12/22 12:10:41;;;;;;;;;62.00;49.25;;;;;;;;5098051;27;45354;-49
2021/12/22 12:13:23;;;;;;;;;51.75;44.25;;;;;;;;5099535;27;45435;-52
2021/12/22 12:21:37;;;;;;;;;54.75;49.50;;;;;;;;5099619;27;45444;-51
2021/12/22 12:21:51;;;;;;;;;48.75;44.00;;;;;;;;5099817;27;45340;-50
2021/12/22 12:24:34;;;;;;;;;69.75;51.50;;;;;;;;5099303;27;46074;-52
2021/12/22 12:27:01;;;;;;;;;62.00;48.00;;;;;;;;5099304;27;45358;-49
2021/12/22 12:29:45;;;;;;;;;51.50;45.75;;;;;;;;5098913;27;45435;-50
2021/12/22 12:32:29;;;;;;;;;53.75;44.50;;;;;;;;5099400;27;45663;-52
2021/12/22 12:35:13;;;;;;;;;56.75;48.00;;;;;;;;5097785;27;45413;-52
2021/12/22 12:37:57;;;;;;;;;48.00;44.75;;;;;;;;5099044;27;45406;-50
2021/12/22 12:40:22;;;;;;;;;48.25;43.75;;;;;;;;5098465;27;45523;-50
2021/12/22 12:43:00;;;;;;;;;55.00;46.00;;;;;;;;5099166;27;45365;-52
2021/12/22 12:45:45;;;;;;;;;54.50;46.00;;;;;;;;5097744;27;45285;-52
2021/12/22 12:48:30;;;;;;;;;50.50;43.50;;;;;;;;5098776;27;45325;-54
2021/12/22 12:51:11;;;;;;;;;51.25;44.25;;;;;;;;5098481;27;45316;-51
2021/12/22 12:53:38;;;;;;;;;51.75;46.00;;;;;;;;5099011;27;45204;-55
2021/12/22 12:56:10;;;;;;;;;46.25;41.75;;;;;;;;5098791;27;46623;-52
2021/12/22 12:58:49;;;;;;;;;46.50;41.75;;;;;;;;5098829;27;45327;-51
2021/12/22 13:01:15;;;;;;;;;54.25;45.00;;;;;;;;5098985;27;45305;-54
2021/12/22 13:03:47;;;;;;;;;51.50;46.00;;;;;;;;5098530;27;45311;-54
2021/12/22 13:06:13;;;;;;;;;51.25;43.50;;;;;;;;5098313;27;45440;-53
2021/12/22 13:08:38;;;;;;;;;54.25;43.75;;;;;;;;5098882;27;45533;-52
2021/12/22 13:11:10;;;;;;;;;53.25;44.50;;;;;;;;5098546;27;45468;-54
2021/12/22 13:15:46;;;;;;;;;54.25;46.25;;;;;;;;5097830;27;45287;-51
2021/12/22 13:16:20;;;;;;;;;56.00;46.50;;;;;;;;5098222;27;45912;-53
2021/12/22 13:18:47;;;;;;;;;60.00;46.75;;;;;;;;5098476;27;45376;-52
2021/12/22 13:21:12;;;;;;;;;55.00;45.25;;;;;;;;5098798;27;45362;-50
2021/12/22 13:23:37;;;;;;;;;55.75;47.00;;;;;;;;5096377;27;45622;-48
2021/12/22 13:26:03;;;;;;;;;58.00;46.00;;;;;;;;5098307;27;45398;-50
2021/12/22 13:28:29;;;;;;;;;56.75;47.25;;;;;;;;5098427;27;45318;-52
2021/12/22 13:31:01;;;;;;;;;56.00;48.00;;;;;;;;5098241;27;45414;-53
2021/12/22 13:33:34;;;;;;;;;53.25;45.00;;;;;;;;5098557;27;45568;-49
2021/12/22 13:36:02;;;;;;;;;52.50;46.00;;;;;;;;5097542;27;45362;-50
2021/12/22 13:38:27;;;;;;;;;51.25;44.25;;;;;;;;5097054;27;45980;-50
2021/12/22 13:40:55;;;;;;;;;54.25;47.25;;;;;;;;5098204;27;45298;-53
2021/12/22 13:43:21;;;;;;;;;54.00;44.25;;;;;;;;5098315;27;45301;-51
2021/12/22 13:45:46;;;;;;;;;51.25;43.75;;;;;;;;5097572;27;45344;-53
2021/12/22 13:48:18;;;;;;;;;49.25;45.50;;;;;;;;5098013;27;45464;-49
2021/12/22 13:50:45;;;;;;;;;51.25;44.75;;;;;;;;5098417;27;45330;-54
2021/12/22 13:53:12;;;;;;;;;50.50;44.75;;;;;;;;5098153;27;45534;-49
2021/12/22 13:55:37;;;;;;;;;53.00;46.50;;;;;;;;5098183;27;46168;-48
2021/12/22 13:58:21;;;;;;;;;46.00;39.75;;;;;;;;5097148;27;45406;-50
2021/12/22 14:00:46;;;;;;;;;48.25;42.50;;;;;;;;5097751;27;45393;-47
2021/12/22 14:03:17;;;;;;;;;60.75;47.50;;;;;;;;5097974;27;45272;-47
2021/12/22 14:05:42;;;;;;;;;57.75;44.25;;;;;;;;5097663;27;46849;-48
2021/12/22 14:08:22;;;;;;;;;57.25;45.00;;;;;;;;5097113;27;45329;-51
2021/12/22 14:10:47;;;;;;;;;54.50;47.50;;;;;;;;5097609;27;45432;-49
2021/12/22 14:13:25;;;;;;;;;61.50;48.25;;;;;;;;5098047;27;45284;-52
2021/12/22 14:15:50;;;;;;;;;60.50;47.75;;;;;;;;5097595;27;45410;-51
2021/12/22 14:18:16;;;;;;;;;47.75;41.00;;;;;;;;5097643;27;45382;-48
2021/12/22 14:20:41;;;;;;;;;65.25;45.50;;;;;;;;5097432;27;45400;-49
2021/12/22 14:23:06;;;;;;;;;53.00;45.00;;;;;;;;5097475;27;45332;-50
2021/12/22 14:25:33;;;;;;;;;48.50;44.50;;;;;;;;5097602;27;45368;-50
2021/12/22 14:28:12;;;;;;;;;54.50;45.25;;;;;;;;5097637;27;45391;-50
2021/12/22 14:30:39;;;;;;;;;57.75;43.25;;;;;;;;5096882;27;45359;-51
2021/12/22 14:33:14;;;;;;;;;51.50;43.00;;;;;;;;5097468;27;45374;-50
2021/12/22 14:36:00;;;;;;;;;49.50;44.00;;;;;;;;5097308;27;46613;-48
2021/12/22 14:38:27;;;;;;;;;53.00;42.00;;;;;;;;5097396;27;45281;-51
2021/12/22 14:40:55;;;;;;;;;59.25;47.50;;;;;;;;5096887;27;45431;-50
2021/12/22 14:43:22;;;;;;;;;54.50;42.50;;;;;;;;5097553;27;45648;-51